createdAt,value
2024-04-12T00:00:13.777Z,72.5
2024-04-12T00:15:38.844Z,72.7
2024-04-12T00:31:03.498Z,72.9
2024-04-12T00:46:28.563Z,73
2024-04-12T01:01:53.719Z,73.1
2024-04-12T01:17:18.686Z,73.2
2024-04-12T01:32:44.238Z,73.3
2024-04-12T01:48:09.933Z,73.4
2024-04-12T02:03:35.348Z,73.5
2024-04-12T02:19:01.761Z,73.6
2024-04-12T02:34:26.777Z,73.4
2024-04-12T02:49:51.339Z,73.9
2024-04-12T03:05:16.498Z,74.1
2024-04-12T03:20:41.371Z,74.3
2024-04-12T03:36:06.073Z,74.3
2024-04-12T03:51:30.535Z,74.3
2024-04-12T04:06:55.329Z,74.2
2024-04-12T04:22:19.943Z,74.3
2024-04-12T04:37:45.018Z,74.4
2024-04-12T04:53:09.882Z,74.6
2024-04-12T05:08:34.634Z,74.5
2024-04-12T05:23:59.682Z,74.5
2024-04-12T05:39:24.899Z,74.5
2024-04-12T05:54:49.518Z,74.5
2024-04-12T06:10:14.344Z,74.3
2024-04-12T06:25:39.301Z,74.1
2024-04-12T06:41:04.983Z,73.9
2024-04-12T06:56:30.290Z,73.8
2024-04-12T07:11:55.966Z,73.4
2024-04-12T07:27:21.976Z,73.3
2024-04-12T07:42:46.797Z,73.4
2024-04-12T07:58:12.348Z,73.4
2024-04-12T08:13:37.190Z,73.2
2024-04-12T08:29:02.612Z,72.9
2024-04-12T08:44:27.612Z,73
2024-04-12T08:59:52.700Z,71.9
2024-04-12T09:15:18.032Z,72.1
2024-04-12T09:30:43.311Z,71.8
2024-04-12T09:46:08.582Z,71.9
2024-04-12T10:01:34.062Z,71.8
2024-04-12T10:16:59.925Z,71.5
2024-04-12T10:32:25.913Z,71.8
2024-04-12T10:47:51.924Z,72.2
2024-04-12T11:03:26.179Z,71.8
2024-04-12T11:18:52.464Z,71.5
2024-04-12T11:34:41.146Z,71.3
2024-04-12T11:50:06.981Z,71.2
2024-04-12T12:05:32.451Z,71
2024-04-12T12:20:58.200Z,70.5
2024-04-12T12:36:23.114Z,71
2024-04-12T12:51:48.127Z,70.8
2024-04-12T13:07:13.132Z,70.9
2024-04-12T13:22:37.891Z,70.8
2024-04-12T13:38:02.788Z,70
2024-04-12T13:53:27.686Z,70.1
2024-04-12T14:08:53.308Z,69.6
2024-04-12T14:24:18.552Z,69.1
2024-04-12T14:39:43.390Z,68.8
2024-04-12T14:55:08.163Z,68.4
2024-04-12T15:10:33.264Z,67.8
2024-04-12T15:25:58.872Z,67.5
2024-04-12T15:41:23.523Z,67.6
2024-04-12T15:56:48.185Z,68.1
2024-04-12T16:12:13.359Z,67.1
2024-04-12T16:27:38.867Z,66.7
2024-04-12T16:43:03.557Z,67.2
2024-04-12T16:58:28.678Z,68.2
2024-04-12T17:13:52.929Z,68.6
2024-04-12T17:29:17.488Z,69
2024-04-12T17:44:42.486Z,69.3
2024-04-12T18:00:07.807Z,69.7
2024-04-12T18:15:32.516Z,69.9
2024-04-12T18:30:58.030Z,70.1
2024-04-12T18:46:22.750Z,70.2
2024-04-12T19:01:47.930Z,70.6
2024-04-12T19:17:12.065Z,70.6
2024-04-12T19:32:37.826Z,70.9
2024-04-12T19:48:03.279Z,71.2
2024-04-12T20:03:29.014Z,71.6
2024-04-12T20:18:54.226Z,71.9
2024-04-12T20:34:19.521Z,72.2
2024-04-12T20:49:43.984Z,72.5
2024-04-12T21:05:09.360Z,72.8
2024-04-12T21:20:34.320Z,73.1
2024-04-12T21:35:59.718Z,73.3
2024-04-12T21:51:25.808Z,73.4
2024-04-12T22:06:51.118Z,73.6
2024-04-12T22:22:16.437Z,73.7
2024-04-12T22:37:41.009Z,73.9
2024-04-12T22:53:05.894Z,74
2024-04-12T23:08:30.248Z,74.2
2024-04-12T23:23:55.402Z,74.5
2024-04-12T23:39:20.751Z,74.8
2024-04-12T23:54:45.440Z,75.1
